CheckWX is a tool to help pilots better visualize weather data.  It is not intended as a substitute for an official pre-flight weather briefing.

17:52:06 UTC

KBJI METAR
Bemidji Regional Airport
Bemidji, Minnesota, USA
Current

16 mins ago

KBJI 211736Z AUTO 35011KT 10SM SCT040 SCT046 BKN065 21/12 A3018 RMK AO2 T02120119
Observed
Jul-21 @ 17:36 UTC
Wind
  • 350° at 11 KTS
Visibility
10 SM
Flight Rules
VFR
Cloud Levels
  • Scattered at 4,000' AGL
  • Scattered at 4,600' AGL
  • Broken at 6,500' AGL
Temperature
21°C / 70°F
Dewpoint
12°C / 54°F
Humidity
57%
Altimeter
30.18" Hg
Pressure
1022.02 hPa
Previous

36 mins ago

KBJI 211716Z AUTO 34009KT 10SM SCT040 SCT060 SCT065 21/12 A3018 RMK AO2 T02100121
Observed
Jul-21 @ 17:16 UTC
Wind
  • 340° at 9 KTS
Visibility
10 SM
Flight Rules
VFR
Cloud Levels
  • Scattered at 4,000' AGL
  • Scattered at 6,000' AGL
  • Scattered at 6,500' AGL
Temperature
21°C / 70°F
Dewpoint
12°C / 54°F
Humidity
57%
Altimeter
30.18" Hg
Pressure
1022.02 hPa
Previous

54 mins ago

KBJI 211658Z AUTO 36009KT 10SM SCT040 SCT049 21/12 A3017 RMK AO2 T02110117
Observed
Jul-21 @ 16:58 UTC
Wind
  • 360° at 9 KTS
Visibility
10 SM
Flight Rules
VFR
Cloud Levels
  • Scattered at 4,000' AGL
  • Scattered at 4,900' AGL
Temperature
21°C / 70°F
Dewpoint
12°C / 54°F
Humidity
57%
Altimeter
30.17" Hg
Pressure
1021.72 hPa